sensor_id;sensor_type;location;lat;lon;timestamp;P1;P2;P0
12542;PMS3003;6337;49.556;25.594;2022-12-07T00:00:08;22.75;11.32;
12542;PMS3003;6337;49.556;25.594;2022-12-07T00:02:36;18.10;10.93;
12542;PMS3003;6337;49.556;25.594;2022-12-07T00:05:06;14.35;10.27;
12542;PMS3003;6337;49.556;25.594;2022-12-07T00:07:33;9.45;7.75;
12542;PMS3003;6337;49.556;25.594;2022-12-07T00:10:02;11.02;7.88;
12542;PMS3003;6337;49.556;25.594;2022-12-07T00:12:30;23.80;8.23;
12542;PMS3003;6337;49.556;25.594;2022-12-07T00:15:01;17.02;9.30;
12542;PMS3003;6337;49.556;25.594;2022-12-07T00:17:29;15.35;9.35;
12542;PMS3003;6337;49.556;25.594;2022-12-07T00:19:58;14.98;9.68;
12542;PMS3003;6337;49.556;25.594;2022-12-07T00:22:32;15.60;9.38;
12542;PMS3003;6337;49.556;25.594;2022-12-07T00:25:00;19.95;10.43;
12542;PMS3003;6337;49.556;25.594;2022-12-07T00:27:27;18.65;9.88;
12542;PMS3003;6337;49.556;25.594;2022-12-07T00:29:55;19.42;9.98;
12542;PMS3003;6337;49.556;25.594;2022-12-07T00:32:24;17.95;10.30;
12542;PMS3003;6337;49.556;25.594;2022-12-07T00:34:52;14.82;9.07;
12542;PMS3003;6337;49.556;25.594;2022-12-07T00:37:20;15.32;8.65;
12542;PMS3003;6337;49.556;25.594;2022-12-07T00:39:52;14.07;9.63;
12542;PMS3003;6337;49.556;25.594;2022-12-07T00:42:20;16.33;9.50;
12542;PMS3003;6337;49.556;25.594;2022-12-07T00:44:48;18.35;9.77;
12542;PMS3003;6337;49.556;25.594;2022-12-07T00:47:16;17.98;8.98;
12542;PMS3003;6337;49.556;25.594;2022-12-07T00:49:43;18.13;9.80;
12542;PMS3003;6337;49.556;25.594;2022-12-07T00:52:12;17.88;10.75;
12542;PMS3003;6337;49.556;25.594;2022-12-07T00:54:40;20.30;10.85;
12542;PMS3003;6337;49.556;25.594;2022-12-07T00:57:09;20.20;11.65;
12542;PMS3003;6337;49.556;25.594;2022-12-07T00:59:37;14.43;9.60;
12542;PMS3003;6337;49.556;25.594;2022-12-07T01:02:04;24.42;11.15;
12542;PMS3003;6337;49.556;25.594;2022-12-07T01:04:33;17.88;12.05;
12542;PMS3003;6337;49.556;25.594;2022-12-07T01:07:00;25.50;13.27;
12542;PMS3003;6337;49.556;25.594;2022-12-07T01:09:28;15.23;9.00;
12542;PMS3003;6337;49.556;25.594;2022-12-07T01:11:56;16.77;10.05;
12542;PMS3003;6337;49.556;25.594;2022-12-07T01:14:27;18.23;11.85;
12542;PMS3003;6337;49.556;25.594;2022-12-07T01:16:57;19.08;10.25;
12542;PMS3003;6337;49.556;25.594;2022-12-07T01:19:25;20.17;11.82;
12542;PMS3003;6337;49.556;25.594;2022-12-07T01:21:52;22.80;12.93;
12542;PMS3003;6337;49.556;25.594;2022-12-07T01:24:20;32.88;11.27;
12542;PMS3003;6337;49.556;25.594;2022-12-07T01:26:50;22.83;12.90;
12542;PMS3003;6337;49.556;25.594;2022-12-07T01:29:18;17.90;9.45;
12542;PMS3003;6337;49.556;25.594;2022-12-07T01:31:49;20.60;10.48;
12542;PMS3003;6337;49.556;25.594;2022-12-07T01:34:17;33.25;12.05;
12542;PMS3003;6337;49.556;25.594;2022-12-07T01:36:45;26.00;11.63;
12542;PMS3003;6337;49.556;25.594;2022-12-07T01:39:12;25.42;15.65;
12542;PMS3003;6337;49.556;25.594;2022-12-07T01:41:40;22.70;13.02;
12542;PMS3003;6337;49.556;25.594;2022-12-07T01:44:13;22.15;12.18;
12542;PMS3003;6337;49.556;25.594;2022-12-07T01:46:44;22.02;11.68;
12542;PMS3003;6337;49.556;25.594;2022-12-07T01:49:14;26.27;12.15;
12542;PMS3003;6337;49.556;25.594;2022-12-07T01:51:43;24.83;12.45;
12542;PMS3003;6337;49.556;25.594;2022-12-07T01:54:11;17.88;9.27;
12542;PMS3003;6337;49.556;25.594;2022-12-07T01:56:40;24.77;13.15;
12542;PMS3003;6337;49.556;25.594;2022-12-07T01:59:09;48.15;15.98;
12542;PMS3003;6337;49.556;25.594;2022-12-07T02:01:39;49.55;16.17;
12542;PMS3003;6337;49.556;25.594;2022-12-07T02:04:07;37.33;14.73;
12542;PMS3003;6337;49.556;25.594;2022-12-07T02:06:36;45.28;15.13;
12542;PMS3003;6337;49.556;25.594;2022-12-07T02:09:04;26.38;14.38;
12542;PMS3003;6337;49.556;25.594;2022-12-07T02:11:33;32.80;14.82;
12542;PMS3003;6337;49.556;25.594;2022-12-07T02:14:02;40.22;16.13;
12542;PMS3003;6337;49.556;25.594;2022-12-07T02:16:31;37.75;16.08;
12542;PMS3003;6337;49.556;25.594;2022-12-07T02:19:06;29.40;15.10;
12542;PMS3003;6337;49.556;25.594;2022-12-07T02:21:43;38.78;16.52;
12542;PMS3003;6337;49.556;25.594;2022-12-07T02:24:19;51.00;18.88;
12542;PMS3003;6337;49.556;25.594;2022-12-07T02:29:39;48.85;18.05;
12542;PMS3003;6337;49.556;25.594;2022-12-07T02:32:10;40.05;17.67;
12542;PMS3003;6337;49.556;25.594;2022-12-07T02:34:42;33.83;15.38;
12542;PMS3003;6337;49.556;25.594;2022-12-07T02:37:14;37.50;14.32;
12542;PMS3003;6337;49.556;25.594;2022-12-07T02:39:49;34.90;15.07;
12542;PMS3003;6337;49.556;25.594;2022-12-07T02:42:21;28.83;13.18;
12542;PMS3003;6337;49.556;25.594;2022-12-07T02:44:52;24.55;10.88;
12542;PMS3003;6337;49.556;25.594;2022-12-07T02:47:20;30.48;10.70;
12542;PMS3003;6337;49.556;25.594;2022-12-07T02:49:48;30.42;12.35;
12542;PMS3003;6337;49.556;25.594;2022-12-07T02:52:17;22.17;9.00;
12542;PMS3003;6337;49.556;25.594;2022-12-07T02:54:45;23.65;8.77;
12542;PMS3003;6337;49.556;25.594;2022-12-07T02:57:18;23.55;11.20;
12542;PMS3003;6337;49.556;25.594;2022-12-07T02:59:56;21.20;10.77;
12542;PMS3003;6337;49.556;25.594;2022-12-07T03:02:28;21.67;10.75;
12542;PMS3003;6337;49.556;25.594;2022-12-07T03:05:00;52.42;13.20;
12542;PMS3003;6337;49.556;25.594;2022-12-07T03:07:33;42.97;10.95;
12542;PMS3003;6337;49.556;25.594;2022-12-07T03:10:07;22.90;11.98;
12542;PMS3003;6337;49.556;25.594;2022-12-07T03:12:37;31.08;12.95;
12542;PMS3003;6337;49.556;25.594;2022-12-07T03:15:14;22.17;11.07;
12542;PMS3003;6337;49.556;25.594;2022-12-07T03:17:45;30.10;11.70;
12542;PMS3003;6337;49.556;25.594;2022-12-07T03:20:13;20.48;10.20;
12542;PMS3003;6337;49.556;25.594;2022-12-07T03:22:49;35.88;11.68;
12542;PMS3003;6337;49.556;25.594;2022-12-07T03:25:17;28.00;11.95;
12542;PMS3003;6337;49.556;25.594;2022-12-07T03:27:46;26.60;13.75;
12542;PMS3003;6337;49.556;25.594;2022-12-07T03:30:22;34.00;11.90;
12542;PMS3003;6337;49.556;25.594;2022-12-07T03:32:52;24.20;10.57;
12542;PMS3003;6337;49.556;25.594;2022-12-07T03:35:22;25.55;10.15;
12542;PMS3003;6337;49.556;25.594;2022-12-07T03:37:54;25.95;10.43;
12542;PMS3003;6337;49.556;25.594;2022-12-07T03:40:26;26.58;14.63;
12542;PMS3003;6337;49.556;25.594;2022-12-07T03:42:55;31.95;14.93;
12542;PMS3003;6337;49.556;25.594;2022-12-07T03:45:30;29.98;13.50;
12542;PMS3003;6337;49.556;25.594;2022-12-07T03:48:00;34.22;13.80;
12542;PMS3003;6337;49.556;25.594;2022-12-07T03:50:31;33.72;15.13;
12542;PMS3003;6337;49.556;25.594;2022-12-07T03:53:02;24.10;11.82;
12542;PMS3003;6337;49.556;25.594;2022-12-07T03:55:32;27.52;12.52;
12542;PMS3003;6337;49.556;25.594;2022-12-07T03:58:02;23.30;10.55;
12542;PMS3003;6337;49.556;25.594;2022-12-07T04:00:34;35.83;14.50;
12542;PMS3003;6337;49.556;25.594;2022-12-07T04:03:03;39.13;15.18;
12542;PMS3003;6337;49.556;25.594;2022-12-07T04:05:33;44.88;14.85;
12542;PMS3003;6337;49.556;25.594;2022-12-07T04:08:03;35.55;14.88;
12542;PMS3003;6337;49.556;25.594;2022-12-07T04:10:33;33.30;15.30;
12542;PMS3003;6337;49.556;25.594;2022-12-07T04:13:01;29.55;12.15;
12542;PMS3003;6337;49.556;25.594;2022-12-07T04:15:30;26.55;13.48;
12542;PMS3003;6337;49.556;25.594;2022-12-07T04:18:02;37.38;16.25;
12542;PMS3003;6337;49.556;25.594;2022-12-07T04:20:30;38.13;14.38;
12542;PMS3003;6337;49.556;25.594;2022-12-07T04:22:59;70.35;17.13;
12542;PMS3003;6337;49.556;25.594;2022-12-07T04:25:27;42.17;17.35;
12542;PMS3003;6337;49.556;25.594;2022-12-07T04:27:54;43.40;15.00;
12542;PMS3003;6337;49.556;25.594;2022-12-07T04:30:25;23.23;13.30;
12542;PMS3003;6337;49.556;25.594;2022-12-07T04:32:52;42.05;14.60;
12542;PMS3003;6337;49.556;25.594;2022-12-07T04:35:23;39.53;18.30;
12542;PMS3003;6337;49.556;25.594;2022-12-07T04:37:52;55.28;16.90;
12542;PMS3003;6337;49.556;25.594;2022-12-07T04:40:19;57.47;18.52;
12542;PMS3003;6337;49.556;25.594;2022-12-07T04:42:47;49.22;17.95;
12542;PMS3003;6337;49.556;25.594;2022-12-07T04:45:14;52.47;15.80;
12542;PMS3003;6337;49.556;25.594;2022-12-07T04:47:42;57.50;19.48;
12542;PMS3003;6337;49.556;25.594;2022-12-07T04:50:12;39.30;15.73;
12542;PMS3003;6337;49.556;25.594;2022-12-07T04:52:46;73.30;20.40;
12542;PMS3003;6337;49.556;25.594;2022-12-07T04:55:15;45.20;16.38;
12542;PMS3003;6337;49.556;25.594;2022-12-07T04:57:45;43.65;15.25;
12542;PMS3003;6337;49.556;25.594;2022-12-07T05:00:13;46.88;16.17;
12542;PMS3003;6337;49.556;25.594;2022-12-07T05:02:43;54.60;17.92;
12542;PMS3003;6337;49.556;25.594;2022-12-07T05:05:12;37.25;15.73;
12542;PMS3003;6337;49.556;25.594;2022-12-07T05:07:48;42.22;15.77;
12542;PMS3003;6337;49.556;25.594;2022-12-07T05:10:15;55.00;17.75;
12542;PMS3003;6337;49.556;25.594;2022-12-07T05:12:47;44.88;15.15;
12542;PMS3003;6337;49.556;25.594;2022-12-07T05:15:17;45.40;13.98;
12542;PMS3003;6337;49.556;25.594;2022-12-07T05:17:46;65.68;17.75;
12542;PMS3003;6337;49.556;25.594;2022-12-07T05:20:14;39.95;15.25;
12542;PMS3003;6337;49.556;25.594;2022-12-07T05:22:41;35.83;16.42;
12542;PMS3003;6337;49.556;25.594;2022-12-07T05:25:10;32.33;14.70;
12542;PMS3003;6337;49.556;25.594;2022-12-07T05:27:38;42.20;17.08;
12542;PMS3003;6337;49.556;25.594;2022-12-07T05:30:07;52.88;16.65;
12542;PMS3003;6337;49.556;25.594;2022-12-07T05:32:37;40.72;15.50;
12542;PMS3003;6337;49.556;25.594;2022-12-07T05:35:06;61.67;16.98;
12542;PMS3003;6337;49.556;25.594;2022-12-07T05:37:33;54.03;15.27;
12542;PMS3003;6337;49.556;25.594;2022-12-07T05:40:04;53.35;16.95;
12542;PMS3003;6337;49.556;25.594;2022-12-07T05:42:33;98.70;17.63;
12542;PMS3003;6337;49.556;25.594;2022-12-07T05:45:02;41.88;16.48;
12542;PMS3003;6337;49.556;25.594;2022-12-07T05:47:30;51.65;18.63;
12542;PMS3003;6337;49.556;25.594;2022-12-07T05:49:59;54.65;19.27;
12542;PMS3003;6337;49.556;25.594;2022-12-07T05:52:26;64.80;18.95;
12542;PMS3003;6337;49.556;25.594;2022-12-07T05:54:55;73.07;20.30;
12542;PMS3003;6337;49.556;25.594;2022-12-07T05:57:23;73.22;23.75;
12542;PMS3003;6337;49.556;25.594;2022-12-07T05:59:54;76.65;23.48;
12542;PMS3003;6337;49.556;25.594;2022-12-07T06:02:21;61.95;18.83;
12542;PMS3003;6337;49.556;25.594;2022-12-07T06:04:51;76.32;18.25;
12542;PMS3003;6337;49.556;25.594;2022-12-07T06:07:19;96.05;27.92;
12542;PMS3003;6337;49.556;25.594;2022-12-07T06:09:47;102.15;26.38;
12542;PMS3003;6337;49.556;25.594;2022-12-07T06:12:16;103.95;25.02;
12542;PMS3003;6337;49.556;25.594;2022-12-07T06:15:02;55.17;18.58;
12542;PMS3003;6337;49.556;25.594;2022-12-07T06:17:30;54.35;19.40;
12542;PMS3003;6337;49.556;25.594;2022-12-07T06:19:59;54.65;18.20;
12542;PMS3003;6337;49.556;25.594;2022-12-07T06:22:29;63.75;18.70;
12542;PMS3003;6337;49.556;25.594;2022-12-07T06:24:58;48.95;17.00;
12542;PMS3003;6337;49.556;25.594;2022-12-07T06:27:26;70.30;21.80;
12542;PMS3003;6337;49.556;25.594;2022-12-07T06:29:57;86.72;22.92;
12542;PMS3003;6337;49.556;25.594;2022-12-07T06:32:33;63.28;26.45;
12542;PMS3003;6337;49.556;25.594;2022-12-07T06:35:01;68.20;23.65;
12542;PMS3003;6337;49.556;25.594;2022-12-07T06:37:31;74.15;21.38;
12542;PMS3003;6337;49.556;25.594;2022-12-07T06:39:58;62.88;21.92;
12542;PMS3003;6337;49.556;25.594;2022-12-07T06:42:26;53.47;23.33;
12542;PMS3003;6337;49.556;25.594;2022-12-07T06:44:53;55.97;21.77;
12542;PMS3003;6337;49.556;25.594;2022-12-07T06:47:21;83.10;29.67;
12542;PMS3003;6337;49.556;25.594;2022-12-07T06:49:50;66.38;25.70;
12542;PMS3003;6337;49.556;25.594;2022-12-07T06:52:17;78.68;26.40;
12542;PMS3003;6337;49.556;25.594;2022-12-07T06:54:45;76.95;26.65;
12542;PMS3003;6337;49.556;25.594;2022-12-07T06:57:12;84.30;25.23;
12542;PMS3003;6337;49.556;25.594;2022-12-07T06:59:41;105.90;30.25;
12542;PMS3003;6337;49.556;25.594;2022-12-07T07:02:08;120.05;32.67;
12542;PMS3003;6337;49.556;25.594;2022-12-07T07:04:36;95.97;25.30;
12542;PMS3003;6337;49.556;25.594;2022-12-07T07:07:06;69.63;25.02;
12542;PMS3003;6337;49.556;25.594;2022-12-07T07:09:36;69.63;26.42;
12542;PMS3003;6337;49.556;25.594;2022-12-07T07:12:05;52.47;21.13;
12542;PMS3003;6337;49.556;25.594;2022-12-07T07:14:33;74.80;21.90;
12542;PMS3003;6337;49.556;25.594;2022-12-07T07:17:01;86.70;26.25;
12542;PMS3003;6337;49.556;25.594;2022-12-07T07:19:33;113.05;29.30;
12542;PMS3003;6337;49.556;25.594;2022-12-07T07:22:01;83.88;24.65;
12542;PMS3003;6337;49.556;25.594;2022-12-07T07:24:30;81.65;26.52;
12542;PMS3003;6337;49.556;25.594;2022-12-07T07:26:58;84.60;30.23;
12542;PMS3003;6337;49.556;25.594;2022-12-07T07:29:27;85.72;27.58;
12542;PMS3003;6337;49.556;25.594;2022-12-07T07:31:55;87.28;35.30;
12542;PMS3003;6337;49.556;25.594;2022-12-07T07:34:23;63.47;25.95;
12542;PMS3003;6337;49.556;25.594;2022-12-07T07:36:51;69.88;30.65;
12542;PMS3003;6337;49.556;25.594;2022-12-07T07:39:21;70.03;29.30;
12542;PMS3003;6337;49.556;25.594;2022-12-07T07:41:50;60.92;27.60;
12542;PMS3003;6337;49.556;25.594;2022-12-07T07:44:23;61.90;26.38;
12542;PMS3003;6337;49.556;25.594;2022-12-07T07:46:51;63.25;24.95;
12542;PMS3003;6337;49.556;25.594;2022-12-07T07:49:20;60.88;25.67;
12542;PMS3003;6337;49.556;25.594;2022-12-07T07:51:48;61.45;26.80;
12542;PMS3003;6337;49.556;25.594;2022-12-07T11:53:01;131.87;54.47;
12542;PMS3003;6337;49.556;25.594;2022-12-07T11:55:40;135.60;55.88;
12542;PMS3003;6337;49.556;25.594;2022-12-07T11:58:14;123.80;54.72;
12542;PMS3003;6337;49.556;25.594;2022-12-07T12:00:48;129.73;54.80;
12542;PMS3003;6337;49.556;25.594;2022-12-07T12:03:20;107.57;48.92;
12542;PMS3003;6337;49.556;25.594;2022-12-07T12:05:56;116.60;51.25;
12542;PMS3003;6337;49.556;25.594;2022-12-07T12:08:26;143.13;53.05;
12542;PMS3003;6337;49.556;25.594;2022-12-07T12:10:55;127.85;59.15;
12542;PMS3003;6337;49.556;25.594;2022-12-07T12:13:43;122.10;58.83;
12542;PMS3003;6337;49.556;25.594;2022-12-07T12:19:25;113.38;51.22;
12542;PMS3003;6337;49.556;25.594;2022-12-07T12:21:59;107.63;48.30;
12542;PMS3003;6337;49.556;25.594;2022-12-07T12:24:36;89.68;48.05;
12542;PMS3003;6337;49.556;25.594;2022-12-07T12:27:06;92.07;50.05;
12542;PMS3003;6337;49.556;25.594;2022-12-07T12:29:36;101.32;55.15;
12542;PMS3003;6337;49.556;25.594;2022-12-07T12:32:12;80.95;44.35;
12542;PMS3003;6337;49.556;25.594;2022-12-07T12:35:20;83.75;40.53;
12542;PMS3003;6337;49.556;25.594;2022-12-07T12:38:22;111.10;50.15;
12542;PMS3003;6337;49.556;25.594;2022-12-07T12:44:14;108.88;51.88;
12542;PMS3003;6337;49.556;25.594;2022-12-07T12:47:40;93.70;47.90;
12542;PMS3003;6337;49.556;25.594;2022-12-07T12:50:18;86.97;41.70;
12542;PMS3003;6337;49.556;25.594;2022-12-07T13:01:51;61.20;31.10;
12542;PMS3003;6337;49.556;25.594;2022-12-07T13:04:29;62.22;35.13;
12542;PMS3003;6337;49.556;25.594;2022-12-07T13:07:02;67.10;32.13;
12542;PMS3003;6337;49.556;25.594;2022-12-07T13:09:33;71.10;31.35;
12542;PMS3003;6337;49.556;25.594;2022-12-07T13:12:03;60.78;33.00;
12542;PMS3003;6337;49.556;25.594;2022-12-07T13:14:52;55.67;31.40;
12542;PMS3003;6337;49.556;25.594;2022-12-07T13:20:39;65.10;32.17;
12542;PMS3003;6337;49.556;25.594;2022-12-07T13:23:05;55.70;30.13;
12542;PMS3003;6337;49.556;25.594;2022-12-07T13:25:38;49.88;27.23;
12542;PMS3003;6337;49.556;25.594;2022-12-07T13:28:13;59.58;28.80;
12542;PMS3003;6337;49.556;25.594;2022-12-07T13:30:50;52.15;29.63;
12542;PMS3003;6337;49.556;25.594;2022-12-07T13:33:21;70.88;32.88;
12542;PMS3003;6337;49.556;25.594;2022-12-07T13:35:53;64.25;32.40;
12542;PMS3003;6337;49.556;25.594;2022-12-07T13:38:27;74.60;36.80;
12542;PMS3003;6337;49.556;25.594;2022-12-07T13:41:02;80.65;34.90;
12542;PMS3003;6337;49.556;25.594;2022-12-07T13:43:42;72.47;33.97;
12542;PMS3003;6337;49.556;25.594;2022-12-07T13:46:15;66.07;33.05;
12542;PMS3003;6337;49.556;25.594;2022-12-07T13:48:46;57.85;30.13;
12542;PMS3003;6337;49.556;25.594;2022-12-07T13:51:17;57.35;32.15;
12542;PMS3003;6337;49.556;25.594;2022-12-07T13:53:49;52.58;28.83;
12542;PMS3003;6337;49.556;25.594;2022-12-07T13:56:17;54.90;29.33;
12542;PMS3003;6337;49.556;25.594;2022-12-07T13:59:03;64.05;29.08;
12542;PMS3003;6337;49.556;25.594;2022-12-07T14:01:37;61.70;27.83;
12542;PMS3003;6337;49.556;25.594;2022-12-07T14:04:19;62.33;28.45;
12542;PMS3003;6337;49.556;25.594;2022-12-07T14:06:49;52.30;27.38;
12542;PMS3003;6337;49.556;25.594;2022-12-07T14:09:20;60.00;29.25;
12542;PMS3003;6337;49.556;25.594;2022-12-07T14:11:51;69.35;29.08;
12542;PMS3003;6337;49.556;25.594;2022-12-07T14:14:23;77.40;26.95;
12542;PMS3003;6337;49.556;25.594;2022-12-07T14:16:59;51.63;27.35;
12542;PMS3003;6337;49.556;25.594;2022-12-07T14:19:44;45.33;27.45;
12542;PMS3003;6337;49.556;25.594;2022-12-07T14:22:21;73.20;34.40;
12542;PMS3003;6337;49.556;25.594;2022-12-07T14:24:58;55.95;31.42;
12542;PMS3003;6337;49.556;25.594;2022-12-07T14:27:29;71.97;32.97;
12542;PMS3003;6337;49.556;25.594;2022-12-07T14:29:58;60.30;32.33;
12542;PMS3003;6337;49.556;25.594;2022-12-07T14:32:29;68.25;33.08;
12542;PMS3003;6337;49.556;25.594;2022-12-07T14:34:58;50.88;29.08;
12542;PMS3003;6337;49.556;25.594;2022-12-07T14:37:27;67.80;29.75;
12542;PMS3003;6337;49.556;25.594;2022-12-07T14:39:59;58.67;29.20;
12542;PMS3003;6337;49.556;25.594;2022-12-07T14:42:29;56.35;29.85;
12542;PMS3003;6337;49.556;25.594;2022-12-07T14:44:57;55.63;28.70;
12542;PMS3003;6337;49.556;25.594;2022-12-07T14:47:26;56.15;29.60;
12542;PMS3003;6337;49.556;25.594;2022-12-07T14:49:57;59.17;28.05;
12542;PMS3003;6337;49.556;25.594;2022-12-07T14:52:25;50.15;28.45;
12542;PMS3003;6337;49.556;25.594;2022-12-07T14:54:56;52.72;24.88;
12542;PMS3003;6337;49.556;25.594;2022-12-07T14:57:25;73.28;27.27;
12542;PMS3003;6337;49.556;25.594;2022-12-07T14:59:56;41.90;24.58;
12542;PMS3003;6337;49.556;25.594;2022-12-07T15:02:30;63.90;25.17;
12542;PMS3003;6337;49.556;25.594;2022-12-07T15:05:00;45.08;22.70;
12542;PMS3003;6337;49.556;25.594;2022-12-07T15:07:29;40.65;23.40;
12542;PMS3003;6337;49.556;25.594;2022-12-07T15:09:58;40.40;22.45;
12542;PMS3003;6337;49.556;25.594;2022-12-07T15:12:28;56.20;27.40;
12542;PMS3003;6337;49.556;25.594;2022-12-07T15:14:57;48.85;24.85;
12542;PMS3003;6337;49.556;25.594;2022-12-07T15:17:28;63.72;26.00;
12542;PMS3003;6337;49.556;25.594;2022-12-07T15:19:58;50.13;24.75;
12542;PMS3003;6337;49.556;25.594;2022-12-07T15:22:27;43.03;22.60;
12542;PMS3003;6337;49.556;25.594;2022-12-07T15:24:56;45.03;24.70;
12542;PMS3003;6337;49.556;25.594;2022-12-07T15:27:24;51.17;25.23;
12542;PMS3003;6337;49.556;25.594;2022-12-07T15:29:52;45.55;26.48;
12542;PMS3003;6337;49.556;25.594;2022-12-07T15:32:20;61.72;24.55;
12542;PMS3003;6337;49.556;25.594;2022-12-07T15:34:55;50.45;24.88;
12542;PMS3003;6337;49.556;25.594;2022-12-07T15:37:28;45.00;20.77;
12542;PMS3003;6337;49.556;25.594;2022-12-07T15:39:55;38.10;21.58;
12542;PMS3003;6337;49.556;25.594;2022-12-07T15:42:23;47.15;23.25;
12542;PMS3003;6337;49.556;25.594;2022-12-07T15:44:55;46.38;25.48;
12542;PMS3003;6337;49.556;25.594;2022-12-07T15:47:34;52.95;26.95;
12542;PMS3003;6337;49.556;25.594;2022-12-07T15:50:02;48.85;25.17;
12542;PMS3003;6337;49.556;25.594;2022-12-07T15:52:33;47.92;26.08;
12542;PMS3003;6337;49.556;25.594;2022-12-07T15:55:06;75.25;35.63;
12542;PMS3003;6337;49.556;25.594;2022-12-07T15:57:36;71.88;38.15;
12542;PMS3003;6337;49.556;25.594;2022-12-07T16:00:08;71.60;35.20;
12542;PMS3003;6337;49.556;25.594;2022-12-07T16:02:41;65.70;37.15;
12542;PMS3003;6337;49.556;25.594;2022-12-07T16:05:08;73.55;35.28;
12542;PMS3003;6337;49.556;25.594;2022-12-07T16:10:26;63.90;30.98;
12542;PMS3003;6337;49.556;25.594;2022-12-07T16:12:54;72.28;33.50;
12542;PMS3003;6337;49.556;25.594;2022-12-07T16:15:27;57.42;27.77;
12542;PMS3003;6337;49.556;25.594;2022-12-07T16:17:56;63.45;32.53;
12542;PMS3003;6337;49.556;25.594;2022-12-07T16:20:47;60.60;29.38;
12542;PMS3003;6337;49.556;25.594;2022-12-07T16:23:16;56.33;29.00;
12542;PMS3003;6337;49.556;25.594;2022-12-07T16:25:47;64.68;32.65;
12542;PMS3003;6337;49.556;25.594;2022-12-07T16:28:15;53.40;29.83;
12542;PMS3003;6337;49.556;25.594;2022-12-07T16:30:48;62.05;29.73;
12542;PMS3003;6337;49.556;25.594;2022-12-07T16:33:15;62.13;30.08;
12542;PMS3003;6337;49.556;25.594;2022-12-07T16:35:44;60.42;29.90;
12542;PMS3003;6337;49.556;25.594;2022-12-07T16:38:14;54.97;27.23;
12542;PMS3003;6337;49.556;25.594;2022-12-07T16:40:45;57.17;26.98;
12542;PMS3003;6337;49.556;25.594;2022-12-07T16:46:08;55.20;29.00;
12542;PMS3003;6337;49.556;25.594;2022-12-07T16:48:45;53.25;27.10;
12542;PMS3003;6337;49.556;25.594;2022-12-07T16:51:21;45.75;26.20;
12542;PMS3003;6337;49.556;25.594;2022-12-07T16:53:51;56.55;28.52;
12542;PMS3003;6337;49.556;25.594;2022-12-07T16:56:20;52.10;29.63;
12542;PMS3003;6337;49.556;25.594;2022-12-07T16:58:49;55.22;28.52;
12542;PMS3003;6337;49.556;25.594;2022-12-07T17:01:20;71.78;32.22;
12542;PMS3003;6337;49.556;25.594;2022-12-07T17:03:50;62.13;33.95;
12542;PMS3003;6337;49.556;25.594;2022-12-07T17:06:19;67.50;35.53;
12542;PMS3003;6337;49.556;25.594;2022-12-07T17:08:58;72.78;32.60;
12542;PMS3003;6337;49.556;25.594;2022-12-07T17:11:27;65.72;31.80;
12542;PMS3003;6337;49.556;25.594;2022-12-07T17:13:57;58.55;27.85;
12542;PMS3003;6337;49.556;25.594;2022-12-07T17:16:45;58.15;30.13;
12542;PMS3003;6337;49.556;25.594;2022-12-07T17:19:14;65.10;26.65;
12542;PMS3003;6337;49.556;25.594;2022-12-07T17:21:45;56.38;27.70;
12542;PMS3003;6337;49.556;25.594;2022-12-07T17:24:20;56.55;27.52;
12542;PMS3003;6337;49.556;25.594;2022-12-07T17:26:49;57.60;28.10;
12542;PMS3003;6337;49.556;25.594;2022-12-07T17:29:26;55.85;28.88;
12542;PMS3003;6337;49.556;25.594;2022-12-07T17:31:59;49.45;25.38;
12542;PMS3003;6337;49.556;25.594;2022-12-07T17:34:27;46.28;24.73;
12542;PMS3003;6337;49.556;25.594;2022-12-07T17:36:57;57.58;25.52;
12542;PMS3003;6337;49.556;25.594;2022-12-07T17:39:30;47.42;25.33;
12542;PMS3003;6337;49.556;25.594;2022-12-07T17:41:58;55.17;24.15;
12542;PMS3003;6337;49.556;25.594;2022-12-07T17:44:43;48.13;24.45;
12542;PMS3003;6337;49.556;25.594;2022-12-07T17:49:56;48.28;25.42;
12542;PMS3003;6337;49.556;25.594;2022-12-07T17:52:25;49.47;23.27;
12542;PMS3003;6337;49.556;25.594;2022-12-07T17:55:10;86.95;40.17;
12542;PMS3003;6337;49.556;25.594;2022-12-07T17:57:39;128.93;58.28;
12542;PMS3003;6337;49.556;25.594;2022-12-07T18:00:07;109.13;50.75;
12542;PMS3003;6337;49.556;25.594;2022-12-07T18:02:36;111.55;47.80;
12542;PMS3003;6337;49.556;25.594;2022-12-07T18:05:11;64.93;33.67;
12542;PMS3003;6337;49.556;25.594;2022-12-07T18:07:38;60.58;29.23;
12542;PMS3003;6337;49.556;25.594;2022-12-07T18:10:07;48.38;25.15;
12542;PMS3003;6337;49.556;25.594;2022-12-07T18:12:36;47.22;24.58;
12542;PMS3003;6337;49.556;25.594;2022-12-07T18:15:10;47.00;23.13;
12542;PMS3003;6337;49.556;25.594;2022-12-07T18:17:40;55.47;27.45;
12542;PMS3003;6337;49.556;25.594;2022-12-07T18:20:12;47.65;27.98;
12542;PMS3003;6337;49.556;25.594;2022-12-07T18:22:42;40.45;21.27;
12542;PMS3003;6337;49.556;25.594;2022-12-07T18:25:11;56.15;30.23;
12542;PMS3003;6337;49.556;25.594;2022-12-07T18:27:43;47.72;25.80;
12542;PMS3003;6337;49.556;25.594;2022-12-07T18:30:12;42.70;25.05;
12542;PMS3003;6337;49.556;25.594;2022-12-07T18:32:40;44.42;26.15;
12542;PMS3003;6337;49.556;25.594;2022-12-07T18:35:08;48.28;23.23;
12542;PMS3003;6337;49.556;25.594;2022-12-07T18:37:38;51.42;25.80;
12542;PMS3003;6337;49.556;25.594;2022-12-07T18:40:12;47.55;29.17;
12542;PMS3003;6337;49.556;25.594;2022-12-07T18:42:40;51.58;23.63;
12542;PMS3003;6337;49.556;25.594;2022-12-07T18:45:08;54.47;28.33;
12542;PMS3003;6337;49.556;25.594;2022-12-07T18:47:36;42.40;23.20;
12542;PMS3003;6337;49.556;25.594;2022-12-07T18:50:09;62.85;26.42;
12542;PMS3003;6337;49.556;25.594;2022-12-07T18:52:41;53.28;25.52;
12542;PMS3003;6337;49.556;25.594;2022-12-07T18:55:12;56.95;27.05;
12542;PMS3003;6337;49.556;25.594;2022-12-07T18:57:40;61.22;32.45;
12542;PMS3003;6337;49.556;25.594;2022-12-07T19:00:08;61.17;32.63;
12542;PMS3003;6337;49.556;25.594;2022-12-07T19:02:44;50.47;28.08;
12542;PMS3003;6337;49.556;25.594;2022-12-07T19:05:15;59.33;26.92;
12542;PMS3003;6337;49.556;25.594;2022-12-07T19:07:44;52.72;28.58;
12542;PMS3003;6337;49.556;25.594;2022-12-07T19:10:16;67.88;32.88;
12542;PMS3003;6337;49.556;25.594;2022-12-07T19:12:47;62.65;30.60;
12542;PMS3003;6337;49.556;25.594;2022-12-07T19:15:15;57.63;28.60;
12542;PMS3003;6337;49.556;25.594;2022-12-07T23:46:47;45.88;23.48;
12542;PMS3003;6337;49.556;25.594;2022-12-07T23:49:15;41.58;20.77;
12542;PMS3003;6337;49.556;25.594;2022-12-07T23:51:43;47.88;24.70;
12542;PMS3003;6337;49.556;25.594;2022-12-07T23:54:15;51.40;24.30;
12542;PMS3003;6337;49.556;25.594;2022-12-07T23:56:53;42.13;21.52;
12542;PMS3003;6337;49.556;25.594;2022-12-07T23:59:21;48.22;26.67;
